sensor_id;sensor_type;location;lat;lon;timestamp;P1;durP1;ratioP1;P2;durP2;ratioP2
49728;SDS011;35617;50.714;7.114;2022-10-17T00:01:11;10.48;;;5.35;;
49728;SDS011;35617;50.714;7.114;2022-10-17T00:03:37;6.82;;;4.38;;
49728;SDS011;35617;50.714;7.114;2022-10-17T00:06:05;5.85;;;4.10;;
49728;SDS011;35617;50.714;7.114;2022-10-17T00:08:32;9.75;;;4.38;;
49728;SDS011;35617;50.714;7.114;2022-10-17T00:10:59;6.55;;;4.10;;
49728;SDS011;35617;50.714;7.114;2022-10-17T00:13:27;7.85;;;4.50;;
49728;SDS011;35617;50.714;7.114;2022-10-17T00:15:53;8.57;;;4.40;;
49728;SDS011;35617;50.714;7.114;2022-10-17T00:18:19;6.93;;;3.85;;
49728;SDS011;35617;50.714;7.114;2022-10-17T00:20:44;5.75;;;3.90;;
49728;SDS011;35617;50.714;7.114;2022-10-17T00:23:10;8.18;;;4.43;;
49728;SDS011;35617;50.714;7.114;2022-10-17T00:25:36;8.88;;;4.38;;
49728;SDS011;35617;50.714;7.114;2022-10-17T00:28:02;6.20;;;4.45;;
49728;SDS011;35617;50.714;7.114;2022-10-17T00:30:27;7.53;;;3.92;;
49728;SDS011;35617;50.714;7.114;2022-10-17T00:32:53;7.30;;;4.50;;
49728;SDS011;35617;50.714;7.114;2022-10-17T00:35:19;7.82;;;4.32;;
49728;SDS011;35617;50.714;7.114;2022-10-17T00:37:45;9.13;;;4.53;;
49728;SDS011;35617;50.714;7.114;2022-10-17T00:40:10;7.80;;;4.22;;
49728;SDS011;35617;50.714;7.114;2022-10-17T00:42:36;7.38;;;4.20;;
49728;SDS011;35617;50.714;7.114;2022-10-17T00:47:30;6.88;;;4.32;;
49728;SDS011;35617;50.714;7.114;2022-10-17T00:49:58;7.78;;;4.30;;
49728;SDS011;35617;50.714;7.114;2022-10-17T00:52:25;10.40;;;4.40;;
49728;SDS011;35617;50.714;7.114;2022-10-17T00:55:13;6.82;;;4.28;;
49728;SDS011;35617;50.714;7.114;2022-10-17T00:57:49;8.90;;;4.40;;
49728;SDS011;35617;50.714;7.114;2022-10-17T01:00:17;11.48;;;4.60;;
49728;SDS011;35617;50.714;7.114;2022-10-17T01:02:43;8.40;;;4.50;;
49728;SDS011;35617;50.714;7.114;2022-10-17T01:05:09;8.18;;;4.43;;
49728;SDS011;35617;50.714;7.114;2022-10-17T01:07:35;8.70;;;4.50;;
49728;SDS011;35617;50.714;7.114;2022-10-17T01:10:02;8.93;;;4.57;;
49728;SDS011;35617;50.714;7.114;2022-10-17T01:12:44;6.72;;;4.10;;
49728;SDS011;35617;50.714;7.114;2022-10-17T01:16:04;8.25;;;4.60;;
49728;SDS011;35617;50.714;7.114;2022-10-17T01:23:29;7.68;;;4.07;;
49728;SDS011;35617;50.714;7.114;2022-10-17T01:31:54;7.82;;;4.20;;
49728;SDS011;35617;50.714;7.114;2022-10-17T01:34:32;6.45;;;4.65;;
49728;SDS011;35617;50.714;7.114;2022-10-17T01:37:07;10.35;;;4.55;;
49728;SDS011;35617;50.714;7.114;2022-10-17T01:39:56;9.23;;;5.03;;
49728;SDS011;35617;50.714;7.114;2022-10-17T01:42:33;10.18;;;4.45;;
49728;SDS011;35617;50.714;7.114;2022-10-17T01:45:10;9.93;;;4.57;;
49728;SDS011;35617;50.714;7.114;2022-10-17T01:47:37;9.50;;;4.60;;
49728;SDS011;35617;50.714;7.114;2022-10-17T01:50:10;8.38;;;4.38;;
49728;SDS011;35617;50.714;7.114;2022-10-17T01:52:41;8.88;;;4.38;;
49728;SDS011;35617;50.714;7.114;2022-10-17T01:55:19;8.38;;;4.45;;
49728;SDS011;35617;50.714;7.114;2022-10-17T01:58:37;8.25;;;4.18;;
49728;SDS011;35617;50.714;7.114;2022-10-17T02:00:41;8.43;;;4.63;;
49728;SDS011;35617;50.714;7.114;2022-10-17T02:03:11;10.45;;;4.20;;
49728;SDS011;35617;50.714;7.114;2022-10-17T02:05:41;9.60;;;4.43;;
49728;SDS011;35617;50.714;7.114;2022-10-17T02:08:08;8.55;;;4.07;;
49728;SDS011;35617;50.714;7.114;2022-10-17T02:10:37;7.80;;;4.30;;
49728;SDS011;35617;50.714;7.114;2022-10-17T02:16:03;9.25;;;4.38;;
49728;SDS011;35617;50.714;7.114;2022-10-17T02:21:19;7.78;;;4.03;;
49728;SDS011;35617;50.714;7.114;2022-10-17T02:24:05;7.53;;;3.65;;
49728;SDS011;35617;50.714;7.114;2022-10-17T02:29:18;7.95;;;4.47;;
49728;SDS011;35617;50.714;7.114;2022-10-17T02:31:53;9.23;;;4.55;;
49728;SDS011;35617;50.714;7.114;2022-10-17T02:34:28;7.95;;;4.20;;
49728;SDS011;35617;50.714;7.114;2022-10-17T02:36:59;6.60;;;4.10;;
49728;SDS011;35617;50.714;7.114;2022-10-17T02:39:27;8.15;;;4.00;;
49728;SDS011;35617;50.714;7.114;2022-10-17T02:41:55;7.78;;;4.43;;
49728;SDS011;35617;50.714;7.114;2022-10-17T02:44:24;8.10;;;4.22;;
49728;SDS011;35617;50.714;7.114;2022-10-17T02:46:52;6.93;;;4.07;;
49728;SDS011;35617;50.714;7.114;2022-10-17T02:49:28;8.38;;;4.10;;
49728;SDS011;35617;50.714;7.114;2022-10-17T02:54:43;25.63;;;6.45;;
49728;SDS011;35617;50.714;7.114;2022-10-17T02:57:21;19.13;;;5.18;;
49728;SDS011;35617;50.714;7.114;2022-10-17T03:00:00;14.60;;;5.32;;
49728;SDS011;35617;50.714;7.114;2022-10-17T03:02:28;12.55;;;4.93;;
49728;SDS011;35617;50.714;7.114;2022-10-17T03:05:03;8.88;;;4.50;;
49728;SDS011;35617;50.714;7.114;2022-10-17T03:07:29;9.98;;;4.28;;
49728;SDS011;35617;50.714;7.114;2022-10-17T03:09:54;11.80;;;4.38;;
49728;SDS011;35617;50.714;7.114;2022-10-17T03:12:20;10.40;;;4.50;;
49728;SDS011;35617;50.714;7.114;2022-10-17T03:14:45;9.32;;;4.15;;
49728;SDS011;35617;50.714;7.114;2022-10-17T03:17:11;7.80;;;4.13;;
49728;SDS011;35617;50.714;7.114;2022-10-17T03:19:36;9.13;;;4.07;;
49728;SDS011;35617;50.714;7.114;2022-10-17T03:22:02;6.38;;;4.10;;
49728;SDS011;35617;50.714;7.114;2022-10-17T03:24:27;8.52;;;4.07;;
49728;SDS011;35617;50.714;7.114;2022-10-17T03:26:53;9.73;;;4.32;;
49728;SDS011;35617;50.714;7.114;2022-10-17T03:29:19;6.28;;;3.67;;
49728;SDS011;35617;50.714;7.114;2022-10-17T03:31:44;8.90;;;4.40;;
49728;SDS011;35617;50.714;7.114;2022-10-17T03:34:10;9.05;;;4.35;;
49728;SDS011;35617;50.714;7.114;2022-10-17T03:36:36;8.48;;;4.28;;
49728;SDS011;35617;50.714;7.114;2022-10-17T03:39:01;8.98;;;4.30;;
49728;SDS011;35617;50.714;7.114;2022-10-17T03:41:27;9.85;;;4.30;;
49728;SDS011;35617;50.714;7.114;2022-10-17T03:43:52;12.90;;;4.85;;
49728;SDS011;35617;50.714;7.114;2022-10-17T03:46:18;9.15;;;4.10;;
49728;SDS011;35617;50.714;7.114;2022-10-17T03:48:44;9.15;;;4.25;;
49728;SDS011;35617;50.714;7.114;2022-10-17T03:51:10;10.85;;;4.38;;
49728;SDS011;35617;50.714;7.114;2022-10-17T03:53:35;9.85;;;4.28;;
49728;SDS011;35617;50.714;7.114;2022-10-17T03:56:15;7.88;;;4.13;;
49728;SDS011;35617;50.714;7.114;2022-10-17T03:58:44;9.88;;;4.57;;
49728;SDS011;35617;50.714;7.114;2022-10-17T04:01:11;7.70;;;4.35;;
49728;SDS011;35617;50.714;7.114;2022-10-17T04:03:38;10.88;;;4.45;;
49728;SDS011;35617;50.714;7.114;2022-10-17T04:06:04;8.77;;;4.60;;
49728;SDS011;35617;50.714;7.114;2022-10-17T04:08:31;11.68;;;4.80;;
49728;SDS011;35617;50.714;7.114;2022-10-17T04:11:01;8.50;;;4.15;;
49728;SDS011;35617;50.714;7.114;2022-10-17T04:13:28;8.90;;;4.30;;
49728;SDS011;35617;50.714;7.114;2022-10-17T04:15:58;8.27;;;4.35;;
49728;SDS011;35617;50.714;7.114;2022-10-17T04:18:25;8.02;;;4.60;;
49728;SDS011;35617;50.714;7.114;2022-10-17T04:20:51;9.43;;;4.90;;
49728;SDS011;35617;50.714;7.114;2022-10-17T04:23:17;7.55;;;4.40;;
49728;SDS011;35617;50.714;7.114;2022-10-17T04:25:43;8.02;;;4.80;;
49728;SDS011;35617;50.714;7.114;2022-10-17T04:28:08;8.57;;;4.45;;
49728;SDS011;35617;50.714;7.114;2022-10-17T04:30:34;6.05;;;3.92;;
49728;SDS011;35617;50.714;7.114;2022-10-17T04:32:59;6.93;;;4.38;;
49728;SDS011;35617;50.714;7.114;2022-10-17T04:35:25;10.05;;;4.75;;
49728;SDS011;35617;50.714;7.114;2022-10-17T04:37:50;9.00;;;4.80;;
49728;SDS011;35617;50.714;7.114;2022-10-17T04:40:16;7.65;;;4.43;;
49728;SDS011;35617;50.714;7.114;2022-10-17T04:42:42;7.90;;;4.80;;
49728;SDS011;35617;50.714;7.114;2022-10-17T04:45:07;9.38;;;4.57;;
49728;SDS011;35617;50.714;7.114;2022-10-17T04:47:33;11.73;;;4.60;;
49728;SDS011;35617;50.714;7.114;2022-10-17T04:49:59;8.65;;;4.30;;
49728;SDS011;35617;50.714;7.114;2022-10-17T04:52:25;8.75;;;4.43;;
49728;SDS011;35617;50.714;7.114;2022-10-17T04:54:50;10.20;;;4.45;;
49728;SDS011;35617;50.714;7.114;2022-10-17T04:57:16;10.90;;;4.63;;
49728;SDS011;35617;50.714;7.114;2022-10-17T04:59:42;7.80;;;4.40;;
49728;SDS011;35617;50.714;7.114;2022-10-17T05:02:10;10.32;;;4.97;;
49728;SDS011;35617;50.714;7.114;2022-10-17T05:04:36;10.38;;;4.78;;
49728;SDS011;35617;50.714;7.114;2022-10-17T05:07:01;10.43;;;5.10;;
49728;SDS011;35617;50.714;7.114;2022-10-17T05:09:27;7.78;;;4.85;;
49728;SDS011;35617;50.714;7.114;2022-10-17T05:11:53;8.13;;;4.65;;
49728;SDS011;35617;50.714;7.114;2022-10-17T05:14:19;8.63;;;4.82;;
49728;SDS011;35617;50.714;7.114;2022-10-17T05:16:44;9.38;;;4.35;;
49728;SDS011;35617;50.714;7.114;2022-10-17T05:19:10;15.73;;;5.53;;
49728;SDS011;35617;50.714;7.114;2022-10-17T05:21:36;9.60;;;4.95;;
49728;SDS011;35617;50.714;7.114;2022-10-17T05:24:05;10.48;;;4.40;;
49728;SDS011;35617;50.714;7.114;2022-10-17T05:26:32;7.60;;;4.57;;
49728;SDS011;35617;50.714;7.114;2022-10-17T05:28:58;7.10;;;4.97;;
49728;SDS011;35617;50.714;7.114;2022-10-17T05:31:26;6.78;;;4.60;;
49728;SDS011;35617;50.714;7.114;2022-10-17T05:33:53;9.00;;;4.90;;
49728;SDS011;35617;50.714;7.114;2022-10-17T05:36:19;8.52;;;4.72;;
49728;SDS011;35617;50.714;7.114;2022-10-17T05:38:48;7.80;;;4.43;;
49728;SDS011;35617;50.714;7.114;2022-10-17T05:41:15;10.13;;;4.93;;
49728;SDS011;35617;50.714;7.114;2022-10-17T05:43:41;7.78;;;4.97;;
49728;SDS011;35617;50.714;7.114;2022-10-17T05:46:06;10.20;;;5.30;;
49728;SDS011;35617;50.714;7.114;2022-10-17T05:48:32;10.32;;;4.95;;
49728;SDS011;35617;50.714;7.114;2022-10-17T05:51:03;10.35;;;4.82;;
49728;SDS011;35617;50.714;7.114;2022-10-17T05:53:31;8.70;;;4.50;;
49728;SDS011;35617;50.714;7.114;2022-10-17T05:55:59;9.63;;;5.15;;
49728;SDS011;35617;50.714;7.114;2022-10-17T05:58:26;11.07;;;5.07;;
49728;SDS011;35617;50.714;7.114;2022-10-17T06:00:56;12.38;;;5.05;;
49728;SDS011;35617;50.714;7.114;2022-10-17T06:03:22;8.52;;;5.05;;
49728;SDS011;35617;50.714;7.114;2022-10-17T06:05:48;7.22;;;4.53;;
49728;SDS011;35617;50.714;7.114;2022-10-17T06:08:13;8.32;;;4.57;;
49728;SDS011;35617;50.714;7.114;2022-10-17T06:10:39;11.07;;;5.20;;
49728;SDS011;35617;50.714;7.114;2022-10-17T06:13:04;16.63;;;7.57;;
49728;SDS011;35617;50.714;7.114;2022-10-17T06:15:30;9.18;;;5.35;;
49728;SDS011;35617;50.714;7.114;2022-10-17T06:17:55;10.45;;;4.72;;
49728;SDS011;35617;50.714;7.114;2022-10-17T06:20:21;7.60;;;4.85;;
49728;SDS011;35617;50.714;7.114;2022-10-17T06:22:46;10.55;;;5.55;;
49728;SDS011;35617;50.714;7.114;2022-10-17T06:25:12;11.18;;;5.65;;
49728;SDS011;35617;50.714;7.114;2022-10-17T06:27:38;6.65;;;4.97;;
49728;SDS011;35617;50.714;7.114;2022-10-17T06:30:04;9.63;;;5.43;;
49728;SDS011;35617;50.714;7.114;2022-10-17T06:32:30;10.23;;;4.70;;
49728;SDS011;35617;50.714;7.114;2022-10-17T06:34:55;9.75;;;4.80;;
49728;SDS011;35617;50.714;7.114;2022-10-17T06:37:21;7.30;;;4.50;;
49728;SDS011;35617;50.714;7.114;2022-10-17T06:39:46;8.88;;;4.78;;
49728;SDS011;35617;50.714;7.114;2022-10-17T06:42:12;9.77;;;4.50;;
49728;SDS011;35617;50.714;7.114;2022-10-17T06:44:38;6.95;;;4.43;;
49728;SDS011;35617;50.714;7.114;2022-10-17T06:47:04;10.63;;;5.28;;
49728;SDS011;35617;50.714;7.114;2022-10-17T06:49:30;9.57;;;4.80;;
49728;SDS011;35617;50.714;7.114;2022-10-17T06:51:58;7.95;;;4.68;;
49728;SDS011;35617;50.714;7.114;2022-10-17T06:54:24;13.32;;;5.78;;
49728;SDS011;35617;50.714;7.114;2022-10-17T06:56:49;7.78;;;5.00;;
49728;SDS011;35617;50.714;7.114;2022-10-17T06:59:15;11.75;;;4.90;;
49728;SDS011;35617;50.714;7.114;2022-10-17T07:01:41;11.05;;;4.82;;
49728;SDS011;35617;50.714;7.114;2022-10-17T07:04:06;8.35;;;4.78;;
49728;SDS011;35617;50.714;7.114;2022-10-17T07:06:32;7.68;;;4.40;;
49728;SDS011;35617;50.714;7.114;2022-10-17T07:08:58;9.65;;;5.25;;
49728;SDS011;35617;50.714;7.114;2022-10-17T07:11:25;7.75;;;5.00;;
49728;SDS011;35617;50.714;7.114;2022-10-17T07:13:50;11.23;;;4.70;;
49728;SDS011;35617;50.714;7.114;2022-10-17T07:16:16;7.72;;;4.05;;
49728;SDS011;35617;50.714;7.114;2022-10-17T07:18:41;9.57;;;4.65;;
49728;SDS011;35617;50.714;7.114;2022-10-17T07:21:07;8.25;;;4.00;;
49728;SDS011;35617;50.714;7.114;2022-10-17T07:23:33;8.73;;;4.60;;
49728;SDS011;35617;50.714;7.114;2022-10-17T07:26:02;7.95;;;4.00;;
49728;SDS011;35617;50.714;7.114;2022-10-17T07:28:33;7.82;;;4.03;;
49728;SDS011;35617;50.714;7.114;2022-10-17T07:31:06;9.52;;;3.80;;
49728;SDS011;35617;50.714;7.114;2022-10-17T07:33:40;8.98;;;4.93;;
49728;SDS011;35617;50.714;7.114;2022-10-17T07:36:06;8.15;;;3.72;;
49728;SDS011;35617;50.714;7.114;2022-10-17T07:38:32;8.40;;;4.18;;
49728;SDS011;35617;50.714;7.114;2022-10-17T07:41:02;9.45;;;4.05;;
49728;SDS011;35617;50.714;7.114;2022-10-17T07:43:29;7.28;;;4.15;;
49728;SDS011;35617;50.714;7.114;2022-10-17T07:45:55;9.35;;;3.80;;
49728;SDS011;35617;50.714;7.114;2022-10-17T07:48:22;7.65;;;4.32;;
49728;SDS011;35617;50.714;7.114;2022-10-17T07:50:48;5.82;;;3.75;;
49728;SDS011;35617;50.714;7.114;2022-10-17T07:53:14;7.50;;;3.85;;
49728;SDS011;35617;50.714;7.114;2022-10-17T07:55:40;8.27;;;3.83;;
49728;SDS011;35617;50.714;7.114;2022-10-17T07:58:07;7.18;;;3.55;;
49728;SDS011;35617;50.714;7.114;2022-10-17T08:00:33;9.55;;;3.90;;
49728;SDS011;35617;50.714;7.114;2022-10-17T08:03:00;13.13;;;4.85;;
49728;SDS011;35617;50.714;7.114;2022-10-17T08:05:25;8.70;;;4.00;;
49728;SDS011;35617;50.714;7.114;2022-10-17T08:07:51;8.50;;;4.20;;
49728;SDS011;35617;50.714;7.114;2022-10-17T08:10:17;8.60;;;3.90;;
49728;SDS011;35617;50.714;7.114;2022-10-17T08:12:42;7.72;;;3.80;;
49728;SDS011;35617;50.714;7.114;2022-10-17T08:15:08;8.07;;;3.72;;
49728;SDS011;35617;50.714;7.114;2022-10-17T08:17:35;7.40;;;3.92;;
49728;SDS011;35617;50.714;7.114;2022-10-17T08:20:02;7.25;;;3.95;;
49728;SDS011;35617;50.714;7.114;2022-10-17T08:22:29;11.75;;;4.20;;
49728;SDS011;35617;50.714;7.114;2022-10-17T08:24:55;6.78;;;3.40;;
49728;SDS011;35617;50.714;7.114;2022-10-17T08:27:21;6.88;;;3.53;;
49728;SDS011;35617;50.714;7.114;2022-10-17T08:29:49;9.25;;;3.90;;
49728;SDS011;35617;50.714;7.114;2022-10-17T08:32:22;7.25;;;3.88;;
49728;SDS011;35617;50.714;7.114;2022-10-17T08:34:50;5.75;;;3.50;;
49728;SDS011;35617;50.714;7.114;2022-10-17T08:37:16;7.53;;;3.80;;
49728;SDS011;35617;50.714;7.114;2022-10-17T08:39:42;6.72;;;3.42;;
49728;SDS011;35617;50.714;7.114;2022-10-17T08:47:59;5.47;;;3.33;;
49728;SDS011;35617;50.714;7.114;2022-10-17T08:53:10;6.05;;;3.28;;
49728;SDS011;35617;50.714;7.114;2022-10-17T08:55:43;7.97;;;3.50;;
49728;SDS011;35617;50.714;7.114;2022-10-17T08:58:12;7.35;;;3.70;;
49728;SDS011;35617;50.714;7.114;2022-10-17T09:01:19;8.70;;;3.47;;
49728;SDS011;35617;50.714;7.114;2022-10-17T09:06:31;9.30;;;3.60;;
49728;SDS011;35617;50.714;7.114;2022-10-17T09:09:20;7.80;;;4.28;;
49728;SDS011;35617;50.714;7.114;2022-10-17T09:14:27;6.22;;;3.55;;
49728;SDS011;35617;50.714;7.114;2022-10-17T09:17:26;7.93;;;3.65;;
49728;SDS011;35617;50.714;7.114;2022-10-17T09:23:22;6.90;;;3.40;;
49728;SDS011;35617;50.714;7.114;2022-10-17T09:25:59;9.70;;;4.22;;
49728;SDS011;35617;50.714;7.114;2022-10-17T09:28:36;7.15;;;3.38;;
49728;SDS011;35617;50.714;7.114;2022-10-17T09:33:49;6.97;;;3.45;;
49728;SDS011;35617;50.714;7.114;2022-10-17T09:36:16;6.95;;;3.42;;
49728;SDS011;35617;50.714;7.114;2022-10-17T09:39:12;6.72;;;3.17;;
49728;SDS011;35617;50.714;7.114;2022-10-17T09:41:52;5.97;;;3.20;;
49728;SDS011;35617;50.714;7.114;2022-10-17T09:44:23;8.95;;;3.78;;
49728;SDS011;35617;50.714;7.114;2022-10-17T09:49:35;7.63;;;4.20;;
49728;SDS011;35617;50.714;7.114;2022-10-17T09:52:04;6.85;;;3.42;;
49728;SDS011;35617;50.714;7.114;2022-10-17T09:54:38;7.00;;;3.60;;
49728;SDS011;35617;50.714;7.114;2022-10-17T09:57:12;8.73;;;3.97;;
49728;SDS011;35617;50.714;7.114;2022-10-17T09:59:40;9.73;;;3.80;;
49728;SDS011;35617;50.714;7.114;2022-10-17T10:04:39;6.70;;;3.47;;
49728;SDS011;35617;50.714;7.114;2022-10-17T10:07:15;6.57;;;3.55;;
49728;SDS011;35617;50.714;7.114;2022-10-17T10:09:44;7.57;;;3.70;;
49728;SDS011;35617;50.714;7.114;2022-10-17T10:14:54;7.25;;;3.15;;
49728;SDS011;35617;50.714;7.114;2022-10-17T10:17:33;6.78;;;3.10;;
49728;SDS011;35617;50.714;7.114;2022-10-17T10:20:03;10.10;;;3.22;;
49728;SDS011;35617;50.714;7.114;2022-10-17T10:23:14;7.75;;;3.53;;
49728;SDS011;35617;50.714;7.114;2022-10-17T10:25:50;7.18;;;3.35;;
49728;SDS011;35617;50.714;7.114;2022-10-17T10:28:27;8.05;;;3.60;;
49728;SDS011;35617;50.714;7.114;2022-10-17T10:30:56;7.28;;;3.22;;
49728;SDS011;35617;50.714;7.114;2022-10-17T10:33:25;8.18;;;3.22;;
49728;SDS011;35617;50.714;7.114;2022-10-17T10:36:03;6.38;;;2.95;;
49728;SDS011;35617;50.714;7.114;2022-10-17T10:38:31;8.45;;;2.90;;
49728;SDS011;35617;50.714;7.114;2022-10-17T10:43:42;5.45;;;2.63;;
49728;SDS011;35617;50.714;7.114;2022-10-17T10:46:26;9.63;;;3.15;;
49728;SDS011;35617;50.714;7.114;2022-10-17T10:49:01;5.65;;;2.72;;
49728;SDS011;35617;50.714;7.114;2022-10-17T10:51:35;7.82;;;3.13;;
49728;SDS011;35617;50.714;7.114;2022-10-17T10:56:49;7.25;;;3.28;;
49728;SDS011;35617;50.714;7.114;2022-10-17T11:02:26;6.85;;;3.08;;
49728;SDS011;35617;50.714;7.114;2022-10-17T11:05:13;6.37;;;2.80;;
49728;SDS011;35617;50.714;7.114;2022-10-17T11:13:24;7.82;;;3.30;;
49728;SDS011;35617;50.714;7.114;2022-10-17T11:16:15;6.90;;;3.17;;
49728;SDS011;35617;50.714;7.114;2022-10-17T11:21:48;8.00;;;3.22;;
49728;SDS011;35617;50.714;7.114;2022-10-17T11:26:58;6.65;;;3.47;;
49728;SDS011;35617;50.714;7.114;2022-10-17T11:29:30;5.50;;;2.80;;
49728;SDS011;35617;50.714;7.114;2022-10-17T11:31:59;7.88;;;3.58;;
49728;SDS011;35617;50.714;7.114;2022-10-17T11:34:31;8.93;;;3.10;;
49728;SDS011;35617;50.714;7.114;2022-10-17T11:37:12;6.35;;;3.20;;
49728;SDS011;35617;50.714;7.114;2022-10-17T11:39:52;5.82;;;3.20;;
49728;SDS011;35617;50.714;7.114;2022-10-17T11:42:31;8.25;;;3.50;;
49728;SDS011;35617;50.714;7.114;2022-10-17T11:45:06;6.15;;;3.42;;
49728;SDS011;35617;50.714;7.114;2022-10-17T11:47:42;8.35;;;3.28;;
49728;SDS011;35617;50.714;7.114;2022-10-17T11:53:00;6.47;;;3.28;;
49728;SDS011;35617;50.714;7.114;2022-10-17T11:55:30;6.80;;;3.10;;
49728;SDS011;35617;50.714;7.114;2022-10-17T12:03:45;8.25;;;3.40;;
49728;SDS011;35617;50.714;7.114;2022-10-17T12:06:37;7.72;;;3.00;;
49728;SDS011;35617;50.714;7.114;2022-10-17T12:11:55;8.63;;;3.22;;
49728;SDS011;35617;50.714;7.114;2022-10-17T12:16:58;6.80;;;3.30;;
49728;SDS011;35617;50.714;7.114;2022-10-17T12:19:25;6.20;;;3.22;;
49728;SDS011;35617;50.714;7.114;2022-10-17T12:21:59;6.07;;;3.45;;
49728;SDS011;35617;50.714;7.114;2022-10-17T12:24:32;7.88;;;3.45;;
49728;SDS011;35617;50.714;7.114;2022-10-17T12:27:15;7.25;;;3.15;;
49728;SDS011;35617;50.714;7.114;2022-10-17T12:29:47;7.13;;;3.22;;
49728;SDS011;35617;50.714;7.114;2022-10-17T12:32:14;8.95;;;4.05;;
49728;SDS011;35617;50.714;7.114;2022-10-17T12:34:49;7.07;;;3.47;;
49728;SDS011;35617;50.714;7.114;2022-10-17T12:40:53;8.35;;;3.67;;
49728;SDS011;35617;50.714;7.114;2022-10-17T12:43:02;8.85;;;3.38;;
49728;SDS011;35617;50.714;7.114;2022-10-17T12:45:57;6.90;;;4.10;;
49728;SDS011;35617;50.714;7.114;2022-10-17T12:56:34;8.10;;;3.67;;
49728;SDS011;35617;50.714;7.114;2022-10-17T12:59:46;10.50;;;3.90;;
49728;SDS011;35617;50.714;7.114;2022-10-17T13:01:59;7.55;;;4.22;;
49728;SDS011;35617;50.714;7.114;2022-10-17T13:04:27;8.55;;;3.88;;
49728;SDS011;35617;50.714;7.114;2022-10-17T13:06:55;7.43;;;3.38;;
49728;SDS011;35617;50.714;7.114;2022-10-17T13:09:26;9.23;;;3.80;;
49728;SDS011;35617;50.714;7.114;2022-10-17T13:11:54;9.48;;;3.28;;
49728;SDS011;35617;50.714;7.114;2022-10-17T13:14:21;7.35;;;3.78;;
49728;SDS011;35617;50.714;7.114;2022-10-17T13:16:55;7.45;;;4.00;;
49728;SDS011;35617;50.714;7.114;2022-10-17T13:19:28;7.35;;;3.80;;
49728;SDS011;35617;50.714;7.114;2022-10-17T13:21:56;8.60;;;4.13;;
49728;SDS011;35617;50.714;7.114;2022-10-17T13:24:38;10.77;;;4.10;;
49728;SDS011;35617;50.714;7.114;2022-10-17T13:27:05;7.93;;;3.65;;
49728;SDS011;35617;50.714;7.114;2022-10-17T13:29:45;9.18;;;3.78;;
49728;SDS011;35617;50.714;7.114;2022-10-17T13:32:11;6.63;;;3.75;;
49728;SDS011;35617;50.714;7.114;2022-10-17T13:34:36;9.15;;;3.67;;
49728;SDS011;35617;50.714;7.114;2022-10-17T13:37:06;10.98;;;4.40;;
49728;SDS011;35617;50.714;7.114;2022-10-17T13:39:37;9.48;;;4.00;;
49728;SDS011;35617;50.714;7.114;2022-10-17T13:42:15;7.03;;;3.40;;
49728;SDS011;35617;50.714;7.114;2022-10-17T13:44:52;8.25;;;3.63;;
49728;SDS011;35617;50.714;7.114;2022-10-17T13:47:22;7.63;;;3.35;;
49728;SDS011;35617;50.714;7.114;2022-10-17T13:49:49;6.18;;;3.45;;
49728;SDS011;35617;50.714;7.114;2022-10-17T13:52:20;10.20;;;4.00;;
49728;SDS011;35617;50.714;7.114;2022-10-17T13:54:49;7.40;;;3.33;;
49728;SDS011;35617;50.714;7.114;2022-10-17T13:57:26;7.50;;;3.28;;
49728;SDS011;35617;50.714;7.114;2022-10-17T13:59:57;6.85;;;3.13;;
49728;SDS011;35617;50.714;7.114;2022-10-17T14:02:30;9.40;;;3.42;;
49728;SDS011;35617;50.714;7.114;2022-10-17T14:05:19;6.80;;;3.28;;
49728;SDS011;35617;50.714;7.114;2022-10-17T14:07:45;5.80;;;2.97;;
49728;SDS011;35617;50.714;7.114;2022-10-17T14:10:38;6.88;;;3.15;;
49728;SDS011;35617;50.714;7.114;2022-10-17T14:13:03;7.07;;;2.88;;
49728;SDS011;35617;50.714;7.114;2022-10-17T14:15:33;7.18;;;2.80;;
49728;SDS011;35617;50.714;7.114;2022-10-17T14:18:00;6.43;;;2.75;;
49728;SDS011;35617;50.714;7.114;2022-10-17T14:20:31;6.47;;;2.90;;
49728;SDS011;35617;50.714;7.114;2022-10-17T14:22:58;6.00;;;2.38;;
49728;SDS011;35617;50.714;7.114;2022-10-17T14:25:37;7.43;;;2.97;;
49728;SDS011;35617;50.714;7.114;2022-10-17T14:33:06;5.90;;;2.40;;
49728;SDS011;35617;50.714;7.114;2022-10-17T14:35:36;9.50;;;2.60;;
49728;SDS011;35617;50.714;7.114;2022-10-17T14:38:03;7.97;;;2.40;;
49728;SDS011;35617;50.714;7.114;2022-10-17T14:40:31;7.85;;;2.30;;
49728;SDS011;35617;50.714;7.114;2022-10-17T14:43:02;9.45;;;3.10;;
49728;SDS011;35617;50.714;7.114;2022-10-17T14:45:34;6.97;;;2.40;;
49728;SDS011;35617;50.714;7.114;2022-10-17T14:48:07;6.95;;;2.13;;
49728;SDS011;35617;50.714;7.114;2022-10-17T14:50:36;5.70;;;2.47;;
49728;SDS011;35617;50.714;7.114;2022-10-17T14:55:29;7.10;;;2.30;;
49728;SDS011;35617;50.714;7.114;2022-10-17T14:57:56;6.00;;;2.53;;
49728;SDS011;35617;50.714;7.114;2022-10-17T15:00:22;5.28;;;2.63;;
49728;SDS011;35617;50.714;7.114;2022-10-17T15:02:48;6.43;;;2.38;;
49728;SDS011;35617;50.714;7.114;2022-10-17T15:05:15;7.60;;;2.13;;
49728;SDS011;35617;50.714;7.114;2022-10-17T15:07:41;6.35;;;2.70;;
49728;SDS011;35617;50.714;7.114;2022-10-17T15:10:24;8.77;;;3.05;;
49728;SDS011;35617;50.714;7.114;2022-10-17T15:12:51;8.18;;;2.50;;
49728;SDS011;35617;50.714;7.114;2022-10-17T15:15:17;7.80;;;2.83;;
49728;SDS011;35617;50.714;7.114;2022-10-17T15:17:42;9.13;;;3.60;;
49728;SDS011;35617;50.714;7.114;2022-10-17T15:20:11;7.50;;;2.50;;
49728;SDS011;35617;50.714;7.114;2022-10-17T15:22:40;6.82;;;2.00;;
49728;SDS011;35617;50.714;7.114;2022-10-17T15:25:05;5.75;;;2.25;;
49728;SDS011;35617;50.714;7.114;2022-10-17T15:27:31;8.13;;;2.03;;
49728;SDS011;35617;50.714;7.114;2022-10-17T15:29:57;9.30;;;2.78;;
49728;SDS011;35617;50.714;7.114;2022-10-17T15:32:22;9.43;;;2.72;;
49728;SDS011;35617;50.714;7.114;2022-10-17T15:34:48;6.22;;;2.92;;
49728;SDS011;35617;50.714;7.114;2022-10-17T15:37:15;8.38;;;3.03;;
49728;SDS011;35617;50.714;7.114;2022-10-17T15:39:41;7.75;;;2.50;;
49728;SDS011;35617;50.714;7.114;2022-10-17T15:42:08;7.75;;;2.50;;
49728;SDS011;35617;50.714;7.114;2022-10-17T15:44:35;8.68;;;3.13;;
49728;SDS011;35617;50.714;7.114;2022-10-17T15:47:01;7.10;;;3.17;;
49728;SDS011;35617;50.714;7.114;2022-10-17T15:49:27;12.02;;;4.10;;
49728;SDS011;35617;50.714;7.114;2022-10-17T15:51:53;7.07;;;3.20;;
49728;SDS011;35617;50.714;7.114;2022-10-17T15:54:18;9.02;;;3.97;;
49728;SDS011;35617;50.714;7.114;2022-10-17T15:56:45;9.75;;;4.03;;
49728;SDS011;35617;50.714;7.114;2022-10-17T15:59:19;10.82;;;3.83;;
49728;SDS011;35617;50.714;7.114;2022-10-17T16:01:49;8.70;;;3.85;;
49728;SDS011;35617;50.714;7.114;2022-10-17T16:04:14;9.90;;;4.43;;
49728;SDS011;35617;50.714;7.114;2022-10-17T16:06:40;10.93;;;4.60;;
49728;SDS011;35617;50.714;7.114;2022-10-17T16:09:07;8.48;;;3.55;;
49728;SDS011;35617;50.714;7.114;2022-10-17T16:11:37;10.10;;;4.32;;
49728;SDS011;35617;50.714;7.114;2022-10-17T16:14:05;9.27;;;3.13;;
49728;SDS011;35617;50.714;7.114;2022-10-17T16:16:35;6.57;;;3.33;;
49728;SDS011;35617;50.714;7.114;2022-10-17T16:19:01;9.15;;;3.00;;
49728;SDS011;35617;50.714;7.114;2022-10-17T16:21:28;9.18;;;3.00;;
49728;SDS011;35617;50.714;7.114;2022-10-17T16:23:56;8.60;;;4.10;;
49728;SDS011;35617;50.714;7.114;2022-10-17T16:26:22;7.47;;;2.85;;
49728;SDS011;35617;50.714;7.114;2022-10-17T16:28:48;12.30;;;4.30;;
49728;SDS011;35617;50.714;7.114;2022-10-17T16:31:17;11.43;;;3.97;;
49728;SDS011;35617;50.714;7.114;2022-10-17T16:33:45;11.10;;;4.38;;
49728;SDS011;35617;50.714;7.114;2022-10-17T16:36:12;10.82;;;4.28;;
49728;SDS011;35617;50.714;7.114;2022-10-17T16:38:37;15.65;;;4.97;;
49728;SDS011;35617;50.714;7.114;2022-10-17T16:41:03;10.77;;;4.90;;
49728;SDS011;35617;50.714;7.114;2022-10-17T16:43:38;13.55;;;4.78;;
49728;SDS011;35617;50.714;7.114;2022-10-17T16:46:04;14.35;;;5.93;;